createdAt,value
2018-09-06T00:01:15.255Z,28.30
2018-09-06T00:03:44.492Z,33.23
2018-09-06T00:06:13.750Z,30.80
2018-09-06T00:08:43.017Z,32.40
2018-09-06T00:11:12.291Z,28.13
2018-09-06T00:13:41.550Z,32.53
2018-09-06T00:16:10.850Z,31.10
2018-09-06T00:18:40.105Z,38.70
2018-09-06T00:21:09.576Z,34.37
2018-09-06T00:23:38.849Z,31.90
2018-09-06T00:26:08.218Z,38.70
2018-09-06T00:28:37.450Z,25.10
2018-09-06T00:31:07.770Z,39.20
2018-09-06T00:33:37.007Z,32.30
2018-09-06T00:36:06.351Z,27.97
2018-09-06T00:38:35.706Z,27.77
2018-09-06T00:41:04.957Z,31.13
2018-09-06T00:43:34.234Z,30.93
2018-09-06T00:46:03.540Z,28.77
2018-09-06T00:48:32.805Z,29.53
2018-09-06T00:51:02.195Z,30.90
2018-09-06T00:53:31.440Z,31.23
2018-09-06T00:56:00.745Z,35.52
2018-09-06T00:58:30.031Z,38.33
2018-09-06T01:00:59.290Z,30.60
2018-09-06T01:03:28.609Z,31.63
2018-09-06T01:05:57.845Z,31.40
2018-09-06T01:08:27.184Z,29.10
2018-09-06T01:10:56.570Z,30.03
2018-09-06T01:13:25.865Z,30.60
2018-09-06T01:15:55.073Z,29.73
2018-09-06T01:18:24.331Z,27.90
2018-09-06T01:20:53.554Z,35.60
2018-09-06T01:23:22.791Z,31.00
2018-09-06T01:25:52.171Z,33.77
2018-09-06T01:28:21.818Z,34.33
2018-09-06T01:30:51.179Z,32.53
2018-09-06T01:33:20.441Z,31.23
2018-09-06T01:35:54.917Z,35.63
2018-09-06T01:38:24.116Z,25.37
2018-09-06T01:40:53.336Z,29.67
2018-09-06T01:43:22.719Z,31.80
2018-09-06T01:45:51.941Z,29.93
2018-09-06T01:48:21.175Z,26.17
2018-09-06T01:50:50.742Z,37.27
2018-09-06T01:53:19.944Z,25.47
2018-09-06T01:55:49.217Z,30.20
2018-09-06T01:58:18.701Z,30.00
2018-09-06T02:00:47.978Z,32.63
2018-09-06T02:03:17.250Z,35.93
2018-09-06T02:05:46.739Z,28.17
2018-09-06T02:08:16.023Z,40.00
2018-09-06T02:10:45.426Z,31.83
2018-09-06T02:13:14.820Z,38.93
2018-09-06T02:15:44.071Z,44.63
2018-09-06T02:18:13.329Z,34.73
2018-09-06T02:20:42.559Z,47.20
2018-09-06T02:23:11.867Z,40.00
2018-09-06T02:25:41.984Z,33.83
2018-09-06T02:28:11.340Z,30.50
2018-09-06T02:30:40.633Z,30.33
2018-09-06T02:33:09.967Z,25.37
2018-09-06T02:35:39.248Z,34.73
2018-09-06T02:38:08.502Z,37.80
2018-09-06T02:40:39.196Z,47.00
2018-09-06T02:43:11.602Z,41.33
2018-09-06T02:45:41.519Z,70.43
2018-09-06T02:48:10.804Z,52.80
2018-09-06T02:50:45.266Z,51.33
2018-09-06T02:53:14.552Z,56.73
2018-09-06T02:55:44.222Z,39.93
2018-09-06T02:58:13.544Z,35.40
2018-09-06T03:00:42.913Z,44.97
2018-09-06T03:03:12.157Z,40.67
2018-09-06T03:05:41.410Z,28.30
2018-09-06T03:08:10.688Z,30.25
2018-09-06T03:10:41.946Z,39.07
2018-09-06T03:13:11.203Z,39.57
2018-09-06T03:15:40.458Z,40.03
2018-09-06T03:18:09.885Z,43.40
2018-09-06T03:20:39.185Z,29.03
2018-09-06T03:23:08.678Z,36.30
2018-09-06T03:25:37.893Z,30.00
2018-09-06T03:28:07.150Z,26.77
2018-09-06T03:30:36.408Z,33.47
2018-09-06T03:33:05.862Z,42.77
2018-09-06T03:35:35.170Z,40.65
2018-09-06T03:38:04.445Z,54.10
2018-09-06T03:40:33.722Z,32.30
2018-09-06T03:43:03.282Z,30.12
2018-09-06T03:45:32.573Z,31.23
2018-09-06T03:48:01.849Z,31.63
2018-09-06T03:50:31.078Z,48.40
2018-09-06T03:53:00.335Z,31.10
2018-09-06T03:55:29.621Z,35.73
2018-09-06T03:57:58.948Z,28.40
2018-09-06T04:00:28.188Z,27.43
2018-09-06T04:02:57.796Z,28.93
2018-09-06T04:05:27.009Z,26.48
2018-09-06T04:07:56.306Z,58.15
2018-09-06T04:10:25.531Z,29.80
2018-09-06T04:12:55.167Z,32.83
2018-09-06T04:15:24.456Z,35.20
2018-09-06T04:17:53.702Z,41.90
2018-09-06T04:20:23.090Z,29.97
2018-09-06T04:22:52.940Z,38.10
2018-09-06T04:25:22.214Z,38.55
2018-09-06T04:27:51.544Z,43.20
2018-09-06T04:30:20.740Z,47.13
2018-09-06T04:32:49.979Z,52.40
2018-09-06T04:35:19.254Z,49.13
2018-09-06T04:37:48.522Z,37.57
2018-09-06T04:40:17.755Z,50.67
2018-09-06T04:42:47.045Z,89.20
2018-09-06T04:45:16.371Z,124.00
2018-09-06T04:47:45.662Z,86.30
2018-09-06T04:50:15.577Z,72.90
2018-09-06T04:52:44.866Z,110.17
2018-09-06T04:55:14.151Z,95.97
2018-09-06T04:57:43.385Z,100.33
2018-09-06T05:00:12.798Z,86.43
2018-09-06T05:02:42.146Z,68.67
2018-09-06T05:05:11.423Z,115.00
2018-09-06T05:07:40.662Z,92.53
2018-09-06T05:10:09.937Z,116.17
2018-09-06T05:12:39.233Z,102.97
2018-09-06T05:15:08.682Z,93.40
2018-09-06T05:17:38.119Z,65.93
2018-09-06T05:20:07.353Z,69.53
2018-09-06T05:22:36.647Z,57.70
2018-09-06T05:25:07.139Z,76.83
2018-09-06T05:27:36.382Z,58.27
2018-09-06T05:30:05.666Z,67.27
2018-09-06T05:32:34.945Z,32.87
2018-09-06T05:35:04.570Z,35.38
2018-09-06T05:37:33.772Z,33.45
2018-09-06T05:40:03.083Z,34.87
2018-09-06T05:42:32.398Z,38.60
2018-09-06T05:45:01.665Z,38.83
2018-09-06T05:47:31.022Z,36.33
2018-09-06T05:50:00.227Z,52.07
2018-09-06T05:52:29.509Z,44.77
2018-09-06T05:54:58.734Z,88.13
2018-09-06T05:57:27.993Z,53.50
2018-09-06T05:59:57.301Z,55.80
2018-09-06T06:02:26.574Z,50.00
2018-09-06T06:04:55.893Z,66.87
2018-09-06T06:08:33.718Z,48.10
2018-09-06T06:11:03.105Z,73.10
2018-09-06T06:13:32.337Z,46.63
2018-09-06T06:16:01.606Z,38.73
2018-09-06T06:18:30.921Z,40.10
2018-09-06T06:21:00.389Z,60.48
2018-09-06T06:23:29.621Z,61.55
2018-09-06T06:25:59.677Z,47.00
2018-09-06T06:28:29.010Z,56.40
2018-09-06T06:30:58.310Z,59.53
2018-09-06T06:33:27.895Z,48.05
2018-09-06T06:35:57.193Z,67.47
2018-09-06T06:38:26.493Z,46.75
2018-09-06T06:40:55.742Z,40.50
2018-09-06T06:43:25.020Z,47.87
2018-09-06T06:45:54.332Z,39.23
2018-09-06T06:48:23.599Z,37.40
2018-09-06T06:50:52.864Z,47.17
2018-09-06T06:53:22.148Z,35.97
2018-09-06T06:55:51.438Z,34.37
2018-09-06T06:58:20.647Z,40.70
2018-09-06T07:00:49.917Z,42.23
2018-09-06T07:03:20.493Z,37.33
2018-09-06T07:05:49.774Z,32.30
2018-09-06T07:08:19.032Z,31.77
2018-09-06T07:10:48.283Z,32.57
2018-09-06T07:13:17.547Z,34.13
2018-09-06T07:15:46.765Z,41.27
2018-09-06T07:18:16.141Z,32.40
2018-09-06T07:20:46.908Z,31.00
2018-09-06T07:23:16.173Z,27.95
2018-09-06T07:25:45.430Z,24.00
2018-09-06T07:28:14.693Z,31.03
2018-09-06T07:30:44.409Z,32.90
2018-09-06T07:33:13.690Z,30.00
2018-09-06T07:35:43.301Z,27.73
2018-09-06T07:38:12.562Z,27.60
2018-09-06T07:40:42.438Z,33.70
2018-09-06T07:43:11.676Z,42.17
2018-09-06T07:45:40.984Z,27.70
2018-09-06T07:48:10.280Z,30.07
2018-09-06T07:50:39.505Z,28.17
2018-09-06T07:53:08.974Z,25.13
2018-09-06T07:55:38.163Z,24.00
2018-09-06T07:58:07.443Z,28.67
2018-09-06T08:00:40.577Z,28.80
2018-09-06T08:03:10.721Z,29.63
2018-09-06T08:05:40.553Z,26.77
2018-09-06T08:08:09.854Z,23.80
2018-09-06T08:10:39.186Z,28.43
2018-09-06T08:13:08.678Z,27.93
2018-09-06T08:15:38.299Z,34.23
2018-09-06T08:18:07.572Z,30.77
2018-09-06T08:20:36.901Z,27.27
2018-09-06T08:23:06.418Z,28.63
2018-09-06T08:25:35.692Z,26.77
2018-09-06T08:28:05.158Z,25.90
2018-09-06T08:30:34.580Z,28.13
2018-09-06T08:33:03.803Z,26.00
2018-09-06T08:35:33.075Z,26.53
2018-09-06T08:38:02.405Z,24.00
2018-09-06T08:40:31.659Z,25.13
2018-09-06T08:43:01.120Z,26.90
2018-09-06T08:45:30.455Z,24.57
2018-09-06T08:47:59.826Z,21.60
2018-09-06T08:50:29.155Z,20.30
2018-09-06T08:52:58.658Z,24.83
2018-09-06T08:55:27.882Z,21.75
2018-09-06T08:57:57.199Z,20.13
2018-09-06T09:00:26.773Z,21.20
2018-09-06T09:02:56.169Z,20.20
2018-09-06T09:05:25.387Z,31.45
2018-09-06T09:07:55.380Z,21.03
2018-09-06T09:10:24.834Z,19.17
2018-09-06T09:12:54.215Z,23.00
2018-09-06T09:15:23.556Z,19.00
2018-09-06T09:17:53.866Z,20.80
2018-09-06T09:20:23.449Z,29.53
2018-09-06T09:22:52.719Z,25.47
2018-09-06T09:25:22.284Z,26.77
2018-09-06T09:27:51.670Z,21.40
2018-09-06T09:30:20.969Z,24.40
2018-09-06T09:32:50.378Z,19.40
2018-09-06T09:35:19.618Z,19.57
2018-09-06T09:37:48.964Z,20.80
2018-09-06T09:40:18.409Z,24.93
2018-09-06T09:42:47.707Z,21.63
2018-09-06T09:45:16.982Z,18.48
2018-09-06T09:47:46.328Z,22.47
2018-09-06T09:52:44.923Z,17.13
2018-09-06T09:55:14.263Z,21.80
2018-09-06T09:57:43.592Z,22.60
2018-09-06T10:00:12.911Z,21.50
2018-09-06T10:02:47.617Z,17.37
2018-09-06T10:05:21.938Z,17.90
2018-09-06T10:07:55.870Z,16.40
2018-09-06T10:10:25.670Z,18.07
2018-09-06T10:12:54.942Z,21.90
2018-09-06T10:15:24.285Z,20.67
2018-09-06T10:17:53.581Z,16.80
2018-09-06T10:20:22.892Z,16.83
2018-09-06T10:22:52.937Z,15.43
2018-09-06T10:25:22.593Z,16.40
2018-09-06T10:27:52.082Z,20.03
2018-09-06T10:30:22.065Z,17.60
2018-09-06T10:32:51.466Z,16.97
2018-09-06T10:35:20.877Z,25.65
2018-09-06T10:37:50.183Z,16.60
2018-09-06T10:40:19.545Z,16.13
2018-09-06T10:42:48.813Z,15.53
2018-09-06T10:45:18.330Z,15.70
2018-09-06T10:47:47.745Z,15.23
2018-09-06T10:50:17.151Z,15.50
2018-09-06T10:52:46.431Z,18.13
2018-09-06T10:55:15.658Z,14.17
2018-09-06T10:57:45.008Z,15.93
2018-09-06T11:00:14.228Z,21.50
2018-09-06T11:02:43.607Z,14.77
2018-09-06T11:05:12.889Z,14.33
2018-09-06T11:07:42.197Z,14.80
2018-09-06T11:10:11.518Z,16.70
2018-09-06T11:12:40.871Z,15.83
2018-09-06T11:15:10.192Z,14.25
2018-09-06T11:17:39.610Z,13.67
2018-09-06T11:20:08.877Z,45.77
2018-09-06T11:22:38.387Z,14.80
2018-09-06T11:25:08.902Z,18.17
2018-09-06T11:27:38.299Z,14.03
2018-09-06T11:30:07.562Z,14.07
2018-09-06T11:32:37.134Z,14.10
2018-09-06T11:35:06.680Z,12.97
2018-09-06T11:37:36.130Z,13.47
2018-09-06T11:40:05.782Z,14.33
2018-09-06T11:42:35.117Z,12.90
2018-09-06T11:45:04.470Z,15.43
2018-09-06T11:47:34.149Z,12.87
2018-09-06T11:50:03.422Z,16.70
2018-09-06T11:52:32.851Z,17.07
2018-09-06T11:55:02.250Z,11.20
2018-09-06T11:57:31.868Z,12.70
2018-09-06T12:00:01.277Z,14.10
2018-09-06T12:02:30.721Z,14.77
2018-09-06T12:05:00.073Z,13.50
2018-09-06T12:07:29.515Z,12.63
2018-09-06T12:09:58.838Z,17.98
2018-09-06T12:12:28.125Z,12.70
2018-09-06T12:14:57.720Z,15.63
2018-09-06T12:17:27.141Z,10.68
2018-09-06T12:19:56.394Z,12.60
2018-09-06T12:22:25.820Z,15.20
2018-09-06T12:24:56.481Z,15.07
2018-09-06T12:27:25.913Z,13.58
2018-09-06T12:29:55.322Z,10.60
2018-09-06T12:32:25.691Z,12.13
2018-09-06T12:34:55.013Z,16.63
2018-09-06T12:37:24.377Z,12.43
2018-09-06T12:39:53.694Z,15.40
2018-09-06T12:42:22.986Z,11.07
2018-09-06T12:44:52.327Z,10.70
2018-09-06T12:47:21.671Z,15.73
2018-09-06T12:49:51.024Z,13.10
2018-09-06T12:52:20.423Z,9.80
2018-09-06T12:54:49.823Z,11.57
2018-09-06T12:57:19.166Z,10.87
2018-09-06T12:59:48.809Z,12.47
2018-09-06T13:02:19.488Z,13.60
2018-09-06T13:04:48.828Z,16.63
2018-09-06T13:07:18.240Z,10.20
2018-09-06T13:09:47.521Z,12.30
2018-09-06T13:12:16.845Z,10.83
2018-09-06T13:14:46.234Z,11.30
2018-09-06T13:17:15.538Z,11.90
2018-09-06T13:19:44.877Z,10.83
2018-09-06T13:22:14.238Z,18.87
2018-09-06T13:24:43.537Z,10.80
2018-09-06T13:27:12.881Z,11.30
2018-09-06T13:29:42.356Z,14.17
2018-09-06T13:32:11.712Z,12.10
2018-09-06T13:34:41.876Z,12.53
2018-09-06T13:37:11.385Z,13.83
2018-09-06T13:39:40.755Z,11.40
2018-09-06T13:42:11.009Z,13.67
2018-09-06T13:44:40.493Z,12.97
2018-09-06T13:47:09.868Z,12.50
2018-09-06T13:49:39.123Z,11.87
2018-09-06T13:52:08.399Z,12.10
2018-09-06T13:54:37.772Z,10.63
2018-09-06T13:57:08.410Z,11.90
2018-09-06T13:59:38.105Z,12.40
2018-09-06T14:02:07.377Z,10.87
2018-09-06T14:04:36.682Z,18.23
2018-09-06T14:07:06.586Z,11.20
2018-09-06T14:09:35.951Z,11.43
2018-09-06T14:12:06.105Z,10.63
2018-09-06T14:14:35.808Z,12.90
2018-09-06T14:17:05.086Z,17.90
2018-09-06T14:19:34.417Z,12.37
2018-09-06T14:22:03.657Z,12.97
2018-09-06T14:24:32.897Z,23.33
2018-09-06T14:27:02.119Z,10.70
2018-09-06T14:29:31.360Z,18.80
2018-09-06T14:32:02.461Z,11.60
2018-09-06T14:34:32.647Z,14.77
2018-09-06T14:37:02.258Z,11.30
2018-09-06T14:39:31.544Z,18.07
2018-09-06T14:42:00.837Z,15.77
2018-09-06T14:44:30.745Z,12.93
2018-09-06T14:46:59.980Z,11.57
2018-09-06T14:49:29.513Z,11.70
2018-09-06T14:51:58.714Z,13.37
2018-09-06T14:54:28.009Z,12.20
2018-09-06T14:56:57.254Z,12.20
2018-09-06T14:59:26.593Z,12.53
2018-09-06T15:01:55.887Z,11.90
2018-09-06T15:04:25.259Z,12.33
2018-09-06T15:06:54.563Z,22.70
2018-09-06T15:09:23.851Z,18.23
2018-09-06T15:11:53.718Z,19.90
2018-09-06T15:14:22.922Z,11.60
2018-09-06T15:16:52.206Z,12.13
2018-09-06T15:19:21.667Z,15.63
2018-09-06T15:21:51.000Z,20.30
2018-09-06T15:24:20.721Z,19.20
2018-09-06T15:26:50.058Z,12.97
2018-09-06T15:29:19.268Z,11.70
2018-09-06T15:31:48.534Z,18.30
2018-09-06T15:34:17.871Z,13.33
2018-09-06T15:36:47.116Z,13.60
2018-09-06T15:39:16.324Z,13.80
2018-09-06T15:41:45.654Z,12.83
2018-09-06T15:44:14.840Z,12.53
2018-09-06T15:46:44.249Z,13.30
2018-09-06T15:49:13.600Z,15.00
2018-09-06T15:51:42.832Z,16.33
2018-09-06T15:54:12.029Z,14.33
2018-09-06T15:56:41.299Z,14.93
2018-09-06T15:59:10.570Z,12.37
2018-09-06T16:01:39.823Z,18.83
2018-09-06T16:04:09.099Z,14.73
2018-09-06T16:06:38.584Z,14.13
2018-09-06T16:09:08.375Z,13.60
2018-09-06T16:11:37.634Z,13.83
2018-09-06T16:14:06.854Z,20.90
2018-09-06T16:16:36.108Z,14.90
2018-09-06T16:19:05.532Z,23.97
2018-09-06T16:21:34.881Z,13.90
2018-09-06T16:24:04.555Z,22.50
2018-09-06T16:26:33.946Z,33.83
2018-09-06T16:29:03.190Z,27.57
2018-09-06T16:31:32.447Z,20.00
2018-09-06T16:34:01.731Z,13.87
2018-09-06T16:36:31.094Z,27.83
2018-09-06T16:39:00.354Z,14.30
2018-09-06T16:41:29.702Z,20.93
2018-09-06T16:43:59.021Z,15.10
2018-09-06T16:46:28.271Z,21.20
2018-09-06T16:48:57.551Z,23.63
2018-09-06T16:51:26.754Z,25.12
2018-09-06T16:53:55.974Z,15.53
2018-09-06T16:56:25.258Z,15.33
2018-09-06T16:58:54.573Z,18.83
2018-09-06T17:01:23.811Z,16.60
2018-09-06T17:03:53.814Z,23.57
2018-09-06T17:06:23.245Z,17.67
2018-09-06T17:08:52.445Z,21.13
2018-09-06T17:11:22.086Z,19.92
2018-09-06T17:13:51.384Z,29.40
2018-09-06T17:16:20.640Z,19.30
2018-09-06T17:18:49.912Z,21.00
2018-09-06T17:21:19.117Z,18.57
2018-09-06T17:23:48.317Z,15.27
2018-09-06T17:26:17.648Z,21.03
2018-09-06T17:28:46.858Z,17.57
2018-09-06T17:31:16.123Z,20.23
2018-09-06T17:33:45.505Z,16.17
2018-09-06T17:36:14.765Z,20.30
2018-09-06T17:38:44.223Z,15.70
2018-09-06T17:41:13.488Z,24.37
2018-09-06T17:43:42.826Z,20.33
2018-09-06T17:46:12.123Z,31.93
2018-09-06T17:48:41.403Z,17.27
2018-09-06T17:51:10.960Z,28.20
2018-09-06T17:53:40.251Z,22.67
2018-09-06T17:56:09.615Z,16.00
2018-09-06T17:58:38.867Z,15.83
2018-09-06T18:01:18.137Z,17.00
2018-09-06T18:03:47.421Z,17.33
2018-09-06T18:06:16.741Z,15.00
2018-09-06T18:08:46.024Z,17.37
2018-09-06T18:11:15.468Z,17.63
2018-09-06T18:13:44.746Z,24.67
2018-09-06T18:16:14.055Z,21.97
2018-09-06T18:18:43.468Z,16.90
2018-09-06T18:21:12.877Z,21.90
2018-09-06T18:23:42.647Z,20.20
2018-09-06T18:26:11.922Z,18.93
2018-09-06T18:28:41.912Z,19.87
2018-09-06T18:31:11.476Z,21.53
2018-09-06T18:33:40.982Z,27.70
2018-09-06T18:36:10.657Z,30.93
2018-09-06T18:38:40.011Z,21.73
2018-09-06T18:41:09.432Z,20.13
2018-09-06T18:43:38.907Z,23.30
2018-09-06T18:46:08.242Z,20.80
2018-09-06T18:48:37.462Z,22.27
2018-09-06T18:51:06.944Z,24.77
2018-09-06T18:53:36.249Z,20.73
2018-09-06T18:56:05.818Z,21.37
2018-09-06T18:58:35.308Z,25.37
2018-09-06T19:01:04.595Z,28.37
2018-09-06T19:03:33.983Z,22.27
2018-09-06T19:06:03.335Z,22.20
2018-09-06T19:08:32.954Z,26.37
2018-09-06T19:11:02.232Z,31.00
2018-09-06T19:13:31.521Z,20.50
2018-09-06T19:16:00.918Z,32.80
2018-09-06T19:18:30.266Z,24.90
2018-09-06T19:20:59.545Z,26.10
2018-09-06T19:23:29.512Z,28.27
2018-09-06T19:25:58.701Z,34.97
2018-09-06T19:28:28.057Z,30.60
2018-09-06T19:30:57.300Z,26.37
2018-09-06T19:33:26.552Z,25.62
2018-09-06T19:35:56.050Z,28.53
2018-09-06T19:38:25.299Z,26.47
2018-09-06T19:40:54.501Z,26.70
2018-09-06T19:43:23.817Z,27.65
2018-09-06T19:45:53.070Z,30.20
2018-09-06T19:48:22.341Z,29.83
2018-09-06T19:50:51.567Z,28.40
2018-09-06T19:53:20.841Z,26.73
2018-09-06T19:55:50.088Z,22.90
2018-09-06T19:58:19.290Z,33.47
2018-09-06T20:00:48.594Z,22.80
2018-09-06T20:03:17.801Z,23.10
2018-09-06T20:05:47.445Z,24.00
2018-09-06T20:08:16.671Z,22.97
2018-09-06T20:10:45.914Z,24.93
2018-09-06T20:13:15.202Z,23.83
2018-09-06T20:15:44.564Z,31.80
2018-09-06T20:18:13.861Z,24.57
2018-09-06T20:20:43.117Z,25.60
2018-09-06T20:23:12.660Z,26.03
2018-09-06T20:25:42.027Z,26.93
2018-09-06T20:28:11.400Z,30.13
2018-09-06T20:30:40.569Z,24.52
2018-09-06T20:33:09.855Z,25.37
2018-09-06T20:35:39.216Z,26.10
2018-09-06T20:38:09.277Z,25.40
2018-09-06T20:40:38.535Z,21.97
2018-09-06T20:43:08.074Z,21.00
2018-09-06T20:45:37.386Z,20.63
2018-09-06T20:48:06.850Z,28.23
2018-09-06T20:50:36.258Z,29.83
2018-09-06T20:53:05.843Z,23.50
2018-09-06T20:55:35.141Z,29.82
2018-09-06T20:58:04.377Z,27.00
2018-09-06T21:00:33.609Z,23.93
2018-09-06T21:03:03.011Z,25.03
2018-09-06T21:05:32.257Z,25.60
2018-09-06T21:08:01.557Z,24.47
2018-09-06T21:10:30.818Z,27.93
2018-09-06T21:13:00.122Z,35.27
2018-09-06T21:15:29.412Z,25.50
2018-09-06T21:17:58.612Z,28.70
2018-09-06T21:20:27.890Z,27.33
2018-09-06T21:22:57.152Z,23.20
2018-09-06T21:25:26.466Z,29.80
2018-09-06T21:27:56.077Z,28.23
2018-09-06T21:30:25.561Z,26.07
2018-09-06T21:32:54.895Z,32.00
2018-09-06T21:35:24.056Z,24.82
2018-09-06T21:37:53.410Z,25.03
2018-09-06T21:40:22.716Z,28.17
2018-09-06T21:42:51.977Z,29.50
2018-09-06T21:45:21.229Z,33.80
2018-09-06T21:47:50.497Z,29.80
2018-09-06T21:50:19.777Z,26.77
2018-09-06T21:52:49.011Z,23.77
2018-09-06T21:55:18.246Z,26.47
2018-09-06T21:57:47.496Z,32.70
2018-09-06T22:00:17.020Z,27.10
2018-09-06T22:02:51.909Z,27.50
2018-09-06T22:05:21.117Z,23.02
2018-09-06T22:07:50.472Z,27.90
2018-09-06T22:10:22.182Z,31.87
2018-09-06T22:12:52.749Z,30.67
2018-09-06T22:15:22.037Z,37.28
2018-09-06T22:17:51.298Z,25.17
2018-09-06T22:20:20.580Z,27.77
2018-09-06T22:22:49.880Z,26.60
2018-09-06T22:25:19.111Z,31.57
2018-09-06T22:27:48.378Z,27.43
2018-09-06T22:30:17.594Z,30.13
2018-09-06T22:32:46.789Z,31.10
2018-09-06T22:35:16.238Z,31.65
2018-09-06T22:37:45.479Z,26.87
2018-09-06T22:40:14.753Z,36.80
2018-09-06T22:42:43.999Z,31.77
2018-09-06T22:45:13.490Z,30.00
2018-09-06T22:47:42.851Z,31.87
2018-09-06T22:50:12.159Z,32.05
2018-09-06T22:52:41.586Z,31.83
2018-09-06T22:55:11.576Z,33.67
2018-09-06T22:57:40.857Z,35.33
2018-09-06T23:00:10.167Z,31.10
2018-09-06T23:02:45.379Z,34.10
2018-09-06T23:05:14.604Z,34.23
2018-09-06T23:07:43.859Z,35.00
2018-09-06T23:10:13.198Z,31.23
2018-09-06T23:12:42.552Z,30.63
2018-09-06T23:15:11.720Z,34.23
2018-09-06T23:17:40.999Z,31.07
2018-09-06T23:20:10.219Z,29.00
2018-09-06T23:22:39.990Z,30.30
2018-09-06T23:25:10.040Z,40.57
2018-09-06T23:27:39.276Z,29.00
2018-09-06T23:30:08.661Z,33.43
2018-09-06T23:32:37.905Z,33.90
2018-09-06T23:35:07.391Z,34.17
2018-09-06T23:37:36.634Z,32.50
2018-09-06T23:40:05.922Z,32.50
2018-09-06T23:42:35.172Z,29.43
2018-09-06T23:45:04.477Z,44.83
2018-09-06T23:47:33.788Z,32.60
2018-09-06T23:50:03.110Z,30.85
2018-09-06T23:52:32.414Z,27.10
2018-09-06T23:55:01.757Z,30.37
2018-09-06T23:57:30.971Z,28.13
